createdAt,value
2022-11-13T00:01:09.636Z,1.30
2022-11-13T00:03:37.544Z,1.55
2022-11-13T00:06:05.675Z,2.13
2022-11-13T00:08:34.199Z,1.50
2022-11-13T00:11:05.378Z,2.90
2022-11-13T00:13:34.128Z,2.55
2022-11-13T00:16:03.660Z,1.70
2022-11-13T00:18:32.508Z,2.58
2022-11-13T00:21:06.589Z,4.75
2022-11-13T00:23:35.645Z,2.30
2022-11-13T00:26:10.789Z,2.10
2022-11-13T00:28:38.924Z,5.63
2022-11-13T00:31:08.057Z,2.70
2022-11-13T00:34:05.298Z,2.70
2022-11-13T00:36:26.722Z,5.35
2022-11-13T00:38:55.260Z,2.75
2022-11-13T00:41:25.219Z,3.60
2022-11-13T00:43:53.244Z,2.47
2022-11-13T00:46:21.151Z,3.65
2022-11-13T00:48:49.145Z,3.60
2022-11-13T00:51:17.100Z,3.00
2022-11-13T00:53:44.958Z,4.50
2022-11-13T00:56:12.943Z,1.30
2022-11-13T00:58:42.164Z,2.75
2022-11-13T01:01:12.144Z,4.80
2022-11-13T01:03:40.777Z,3.03
2022-11-13T01:06:13.874Z,1.80
2022-11-13T01:08:42.174Z,1.23
2022-11-13T01:11:11.771Z,4.28
2022-11-13T01:13:39.899Z,2.83
2022-11-13T01:16:11.244Z,2.92
2022-11-13T01:18:41.144Z,2.90
2022-11-13T01:21:12.290Z,1.88
2022-11-13T01:23:40.336Z,2.45
2022-11-13T01:26:10.360Z,2.15
2022-11-13T01:28:39.071Z,6.72
2022-11-13T01:31:09.605Z,1.10
2022-11-13T01:33:37.992Z,2.28
2022-11-13T01:36:08.570Z,1.40
2022-11-13T01:38:37.691Z,1.63
2022-11-13T01:41:09.200Z,3.47
2022-11-13T01:43:39.364Z,1.38
2022-11-13T01:46:17.391Z,4.32
2022-11-13T01:48:49.071Z,2.28
2022-11-13T01:51:24.022Z,2.75
2022-11-13T01:56:20.441Z,1.92
2022-11-13T01:58:55.301Z,2.05
2022-11-13T02:01:24.644Z,1.33
2022-11-13T02:03:52.900Z,6.90
2022-11-13T02:06:21.515Z,2.15
2022-11-13T02:08:51.832Z,2.00
2022-11-13T02:11:20.889Z,2.40
2022-11-13T02:13:49.144Z,1.95
2022-11-13T02:16:17.881Z,8.13
2022-11-13T02:18:47.277Z,1.67
2022-11-13T02:21:26.561Z,1.90
2022-11-13T02:24:02.314Z,3.15
2022-11-13T02:26:32.770Z,2.45
2022-11-13T02:29:00.620Z,1.80
2022-11-13T02:31:28.570Z,2.03
2022-11-13T02:33:56.420Z,1.98
2022-11-13T02:36:26.337Z,1.63
2022-11-13T02:38:56.658Z,2.50
2022-11-13T02:41:24.507Z,1.60
2022-11-13T02:43:53.792Z,3.33
2022-11-13T02:46:21.681Z,1.50
2022-11-13T02:48:49.560Z,1.65
2022-11-13T02:51:17.429Z,1.85
2022-11-13T02:53:45.289Z,2.40
2022-11-13T02:56:13.203Z,2.42
2022-11-13T02:58:41.374Z,2.97
2022-11-13T03:01:10.698Z,2.10
2022-11-13T03:03:57.179Z,3.05
2022-11-13T03:06:25.614Z,2.75
2022-11-13T03:08:53.689Z,1.58
2022-11-13T03:11:21.705Z,1.95
2022-11-13T03:13:49.610Z,2.10
2022-11-13T03:16:19.044Z,1.67
2022-11-13T03:18:46.956Z,2.30
2022-11-13T03:21:16.542Z,1.92
2022-11-13T03:23:45.938Z,2.53
2022-11-13T03:26:16.722Z,2.40
2022-11-13T03:28:44.727Z,2.25
2022-11-13T03:31:13.099Z,1.42
2022-11-13T03:33:42.360Z,2.90
2022-11-13T03:36:12.732Z,1.40
2022-11-13T03:38:40.599Z,1.35
2022-11-13T03:41:08.438Z,1.95
2022-11-13T03:43:36.362Z,6.20
2022-11-13T03:46:04.615Z,5.07
2022-11-13T03:48:32.514Z,1.67
2022-11-13T03:51:02.009Z,1.77
2022-11-13T03:53:29.894Z,1.73
2022-11-13T03:55:59.633Z,1.50
2022-11-13T03:58:27.979Z,2.45
2022-11-13T04:00:56.719Z,1.88
2022-11-13T04:03:24.597Z,1.60
2022-11-13T04:05:52.867Z,2.10
2022-11-13T04:08:22.163Z,2.03
2022-11-13T04:10:50.036Z,1.50
2022-11-13T04:13:17.890Z,1.33
2022-11-13T04:15:45.755Z,3.38
2022-11-13T04:18:13.687Z,2.10
2022-11-13T04:20:41.635Z,2.00
2022-11-13T04:23:12.437Z,1.63
2022-11-13T04:25:41.659Z,1.42
2022-11-13T04:28:10.567Z,1.40
2022-11-13T04:30:38.576Z,1.60
2022-11-13T04:33:06.997Z,4.60
2022-11-13T04:35:35.475Z,2.95
2022-11-13T04:38:03.614Z,2.03
2022-11-13T04:40:31.572Z,1.67
2022-11-13T04:42:59.858Z,2.30
2022-11-13T04:45:28.389Z,1.55
2022-11-13T04:47:56.283Z,1.73
2022-11-13T04:50:24.320Z,2.92
2022-11-13T04:52:52.174Z,2.33
2022-11-13T04:55:20.215Z,1.60
2022-11-13T04:57:51.352Z,3.40
2022-11-13T05:00:20.954Z,1.88
2022-11-13T05:02:48.801Z,1.60
2022-11-13T05:05:16.840Z,1.50
2022-11-13T05:07:44.727Z,1.27
2022-11-13T05:10:13.760Z,2.10
2022-11-13T05:12:42.820Z,3.15
2022-11-13T05:15:10.939Z,1.67
2022-11-13T05:17:40.159Z,3.13
2022-11-13T05:20:09.213Z,1.60
2022-11-13T05:22:37.075Z,1.80
2022-11-13T05:25:05.415Z,1.50
2022-11-13T05:27:33.332Z,2.03
2022-11-13T05:30:01.204Z,1.83
2022-11-13T05:32:29.068Z,1.70
2022-11-13T05:34:58.304Z,1.42
2022-11-13T05:37:26.179Z,1.63
2022-11-13T05:39:54.038Z,1.50
2022-11-13T05:42:21.977Z,2.28
2022-11-13T05:44:49.831Z,1.50
2022-11-13T05:47:17.696Z,1.92
2022-11-13T05:49:45.589Z,1.50
2022-11-13T05:52:14.836Z,1.50
2022-11-13T05:54:42.743Z,2.95
2022-11-13T05:57:10.660Z,1.70
2022-11-13T05:59:38.530Z,1.52
2022-11-13T06:02:06.584Z,1.83
2022-11-13T06:04:34.692Z,1.45
2022-11-13T06:07:02.591Z,1.70
2022-11-13T06:09:31.834Z,1.50
2022-11-13T06:11:59.792Z,1.70
2022-11-13T06:14:27.633Z,1.63
2022-11-13T06:16:55.550Z,1.40
2022-11-13T06:19:23.398Z,2.65
2022-11-13T06:21:51.305Z,1.85
2022-11-13T06:24:19.200Z,1.70
2022-11-13T06:26:48.408Z,1.67
2022-11-13T06:29:16.240Z,1.42
2022-11-13T06:31:44.311Z,2.42
2022-11-13T06:34:12.180Z,14.48
2022-11-13T06:36:40.098Z,1.52
2022-11-13T06:39:09.253Z,2.03
2022-11-13T06:41:39.438Z,1.70
2022-11-13T06:44:08.856Z,1.67
2022-11-13T06:46:36.896Z,1.65
2022-11-13T06:49:04.832Z,1.83
2022-11-13T06:51:33.173Z,1.92
2022-11-13T06:54:01.048Z,1.63
2022-11-13T06:56:28.941Z,1.60
2022-11-13T06:58:57.115Z,2.20
2022-11-13T07:01:27.477Z,2.03
2022-11-13T07:03:55.644Z,1.90
2022-11-13T07:06:25.311Z,1.50
2022-11-13T07:08:53.819Z,1.77
2022-11-13T07:11:23.371Z,1.48
2022-11-13T07:13:51.644Z,1.67
2022-11-13T07:16:19.919Z,1.67
2022-11-13T07:18:52.840Z,1.45
2022-11-13T07:21:21.963Z,2.75
2022-11-13T07:23:50.715Z,2.97
2022-11-13T07:26:18.986Z,1.83
2022-11-13T07:28:47.319Z,1.92
2022-11-13T07:31:16.943Z,1.85
2022-11-13T07:33:45.118Z,1.98
2022-11-13T07:36:14.343Z,1.50
2022-11-13T07:38:42.434Z,1.50
2022-11-13T07:41:10.349Z,1.60
2022-11-13T07:43:38.220Z,1.60
2022-11-13T07:46:06.271Z,5.65
2022-11-13T07:48:34.187Z,2.78
2022-11-13T07:51:02.750Z,1.70
2022-11-13T07:53:32.512Z,2.20
2022-11-13T07:56:02.752Z,1.60
2022-11-13T07:58:31.355Z,1.83
2022-11-13T08:01:04.086Z,3.25
2022-11-13T08:03:32.476Z,2.97
2022-11-13T08:06:05.161Z,4.00
2022-11-13T08:08:35.163Z,1.85
2022-11-13T08:11:06.289Z,4.32
2022-11-13T08:13:34.619Z,2.13
2022-11-13T08:16:03.454Z,2.75
2022-11-13T08:18:32.180Z,2.85
2022-11-13T08:21:03.447Z,2.40
2022-11-13T08:23:31.434Z,6.88
2022-11-13T08:26:05.710Z,2.65
2022-11-13T08:28:33.880Z,4.40
2022-11-13T08:31:01.971Z,2.63
2022-11-13T08:33:30.031Z,3.03
2022-11-13T08:35:59.240Z,2.17
2022-11-13T08:38:28.122Z,2.28
2022-11-13T08:41:04.408Z,3.40
2022-11-13T08:43:35.198Z,2.40
2022-11-13T08:46:03.993Z,3.03
2022-11-13T08:48:32.164Z,2.65
2022-11-13T08:51:00.148Z,4.40
2022-11-13T08:53:28.031Z,2.28
2022-11-13T08:55:55.935Z,2.55
2022-11-13T08:58:25.312Z,4.20
2022-11-13T09:00:53.253Z,2.97
2022-11-13T09:03:21.131Z,3.22
2022-11-13T09:05:49.111Z,3.42
2022-11-13T09:08:16.964Z,4.60
2022-11-13T09:10:44.872Z,2.47
2022-11-13T09:13:12.778Z,2.42
2022-11-13T09:15:42.245Z,2.25
2022-11-13T09:18:11.611Z,2.40
2022-11-13T09:20:39.586Z,2.70
2022-11-13T09:23:09.219Z,2.05
2022-11-13T09:25:38.418Z,2.17
2022-11-13T09:28:07.319Z,4.65
2022-11-13T09:30:35.579Z,2.28
2022-11-13T09:33:04.951Z,2.53
2022-11-13T09:35:36.567Z,2.03
2022-11-13T09:38:10.996Z,2.17
2022-11-13T09:40:44.243Z,1.90
2022-11-13T09:43:23.451Z,1.77
2022-11-13T09:45:55.272Z,3.60
2022-11-13T09:48:32.092Z,2.13
2022-11-13T09:51:04.991Z,2.10
2022-11-13T09:53:37.577Z,1.63
2022-11-13T09:56:20.094Z,1.50
2022-11-13T09:58:55.293Z,3.92
2022-11-13T10:01:31.123Z,2.17
2022-11-13T10:04:05.961Z,1.77
2022-11-13T10:06:47.398Z,5.97
2022-11-13T10:09:25.249Z,1.50
2022-11-13T10:11:57.334Z,3.58
2022-11-13T10:14:35.311Z,3.40
2022-11-13T10:17:09.331Z,1.88
2022-11-13T10:19:44.113Z,3.13
2022-11-13T10:22:34.127Z,4.45
2022-11-13T10:25:11.571Z,2.42
2022-11-13T10:27:39.969Z,4.32
2022-11-13T10:30:14.867Z,3.00
2022-11-13T10:32:43.077Z,3.10
2022-11-13T10:35:29.715Z,3.28
2022-11-13T10:38:07.899Z,2.35
2022-11-13T10:40:38.223Z,3.33
2022-11-13T10:43:07.985Z,2.30
2022-11-13T10:45:35.844Z,1.80
2022-11-13T10:48:05.248Z,4.20
2022-11-13T10:50:35.568Z,5.75
2022-11-13T10:53:03.478Z,3.83
2022-11-13T10:55:39.327Z,3.20
2022-11-13T10:58:14.982Z,1.90
2022-11-13T11:00:44.857Z,4.82
2022-11-13T11:03:18.232Z,3.30
2022-11-13T11:06:01.419Z,2.35
2022-11-13T11:08:32.520Z,2.60
2022-11-13T11:11:20.275Z,2.20
2022-11-13T11:13:49.659Z,2.60
2022-11-13T11:16:21.958Z,2.40
2022-11-13T11:18:54.720Z,3.08
2022-11-13T11:21:28.428Z,7.30
2022-11-13T11:24:04.027Z,2.53
2022-11-13T11:26:36.454Z,1.95
2022-11-13T11:29:17.168Z,3.72
2022-11-13T11:31:51.985Z,2.40
2022-11-13T11:34:26.724Z,3.50
2022-11-13T11:37:02.470Z,2.92
2022-11-13T11:39:36.190Z,3.80
2022-11-13T11:42:16.598Z,1.98
2022-11-13T11:44:58.927Z,5.18
2022-11-13T11:47:26.948Z,4.32
2022-11-13T11:49:56.518Z,1.75
2022-11-13T11:52:43.567Z,1.98
2022-11-13T11:55:36.111Z,4.50
2022-11-13T11:58:16.907Z,4.72
2022-11-13T12:00:51.294Z,2.47
2022-11-13T12:03:55.063Z,2.22
2022-11-13T12:06:33.220Z,4.40
2022-11-13T12:09:09.247Z,3.67
2022-11-13T12:11:42.910Z,1.25
2022-11-13T12:14:24.080Z,1.88
2022-11-13T12:17:15.933Z,2.30
2022-11-13T12:19:53.548Z,2.80
2022-11-13T12:22:31.041Z,5.55
2022-11-13T12:25:13.524Z,1.38
2022-11-13T12:27:46.711Z,2.58
2022-11-13T12:30:18.114Z,2.40
2022-11-13T12:33:04.754Z,2.40
2022-11-13T12:35:32.635Z,2.13
2022-11-13T12:38:06.559Z,3.08
2022-11-13T12:40:44.298Z,2.40
2022-11-13T12:43:35.206Z,3.40
2022-11-13T12:46:08.731Z,1.35
2022-11-13T12:48:38.464Z,2.05
2022-11-13T12:51:08.232Z,2.42
2022-11-13T12:53:46.948Z,2.30
2022-11-13T12:56:32.543Z,5.20
2022-11-13T12:59:29.741Z,3.40
2022-11-13T13:01:57.564Z,1.67
2022-11-13T13:04:47.603Z,2.53
2022-11-13T13:07:32.576Z,3.35
2022-11-13T13:10:12.352Z,2.17
2022-11-13T13:12:51.134Z,1.45
2022-11-13T13:15:33.876Z,3.00
2022-11-13T13:18:07.123Z,3.42
2022-11-13T13:20:38.490Z,2.20
2022-11-13T13:23:08.734Z,1.67
2022-11-13T13:25:37.540Z,1.50
2022-11-13T13:28:21.470Z,3.17
2022-11-13T13:30:57.416Z,1.23
2022-11-13T13:33:33.473Z,1.55
2022-11-13T13:36:12.744Z,1.42
2022-11-13T13:38:52.312Z,3.15
2022-11-13T13:41:37.722Z,1.98
2022-11-13T13:44:27.155Z,4.18
2022-11-13T13:46:57.782Z,1.45
2022-11-13T13:49:29.355Z,4.90
2022-11-13T13:51:58.443Z,1.42
2022-11-13T13:54:30.013Z,2.78
2022-11-13T13:56:58.946Z,1.00
2022-11-13T13:59:33.820Z,1.17
2022-11-13T14:02:05.342Z,1.40
2022-11-13T14:04:36.261Z,1.20
2022-11-13T14:07:04.684Z,1.30
2022-11-13T14:09:32.804Z,2.75
2022-11-13T14:12:07.867Z,1.85
2022-11-13T14:14:40.568Z,1.40
2022-11-13T14:17:11.689Z,1.15
2022-11-13T14:19:39.666Z,1.33
2022-11-13T14:22:12.341Z,1.30
2022-11-13T14:24:46.796Z,1.90
2022-11-13T14:27:20.033Z,2.92
2022-11-13T14:29:50.620Z,1.95
2022-11-13T14:32:22.218Z,9.98
2022-11-13T14:34:51.390Z,18.67
2022-11-13T14:37:24.996Z,13.45
2022-11-13T14:39:54.616Z,18.13
2022-11-13T14:42:27.016Z,14.75
2022-11-13T14:45:13.645Z,15.82
2022-11-13T14:47:41.573Z,24.67
2022-11-13T14:50:21.080Z,40.90
2022-11-13T14:52:58.196Z,63.33
2022-11-13T14:55:28.732Z,70.43
2022-11-13T14:57:56.690Z,64.38
2022-11-13T15:00:32.164Z,68.55
2022-11-13T15:03:01.445Z,69.13
2022-11-13T15:05:30.569Z,101.68
2022-11-13T15:07:58.725Z,86.07
2022-11-13T15:10:30.200Z,98.93
2022-11-13T15:12:58.050Z,105.20
2022-11-13T15:15:31.124Z,105.80
2022-11-13T15:17:59.160Z,113.90
2022-11-13T15:20:28.891Z,113.88
2022-11-13T15:22:58.059Z,114.55
2022-11-13T15:25:26.906Z,109.15
2022-11-13T15:27:54.811Z,106.95
2022-11-13T15:30:22.804Z,107.18
2022-11-13T15:32:54.019Z,97.47
2022-11-13T15:35:22.601Z,102.53
2022-11-13T15:37:50.490Z,103.47
2022-11-13T15:40:19.254Z,102.43
2022-11-13T15:42:47.617Z,100.40
2022-11-13T15:45:17.220Z,102.60
2022-11-13T15:47:45.361Z,99.82
2022-11-13T15:50:15.765Z,85.88
2022-11-13T15:52:47.077Z,93.25
2022-11-13T15:55:21.947Z,60.92
2022-11-13T15:57:50.171Z,84.13
2022-11-13T16:00:21.263Z,84.32
2022-11-13T16:02:50.564Z,85.80
2022-11-13T16:05:19.885Z,78.72
2022-11-13T16:07:47.822Z,78.07
2022-11-13T16:10:17.392Z,79.57
2022-11-13T16:12:45.967Z,76.65
2022-11-13T16:15:16.622Z,79.82
2022-11-13T16:17:47.616Z,76.05
2022-11-13T16:20:17.836Z,68.63
2022-11-13T16:22:47.452Z,81.65
2022-11-13T16:25:18.975Z,76.78
2022-11-13T16:27:47.583Z,77.07
2022-11-13T16:30:17.193Z,68.55
2022-11-13T16:32:45.086Z,64.43
2022-11-13T16:35:17.062Z,66.32
2022-11-13T16:37:46.460Z,63.45
2022-11-13T16:40:20.690Z,58.47
2022-11-13T16:42:48.719Z,65.13
2022-11-13T16:45:16.832Z,73.80
2022-11-13T16:47:45.332Z,66.07
2022-11-13T16:50:17.697Z,56.40
2022-11-13T16:52:46.951Z,65.40
2022-11-13T16:55:14.994Z,55.10
2022-11-13T16:57:43.243Z,64.32
2022-11-13T17:00:15.031Z,53.00
2022-11-13T17:02:43.125Z,61.00
2022-11-13T17:05:13.882Z,53.58
2022-11-13T17:07:41.958Z,56.75
2022-11-13T17:10:30.698Z,46.03
2022-11-13T17:12:59.023Z,53.78
2022-11-13T17:15:26.922Z,58.80
2022-11-13T17:17:58.209Z,60.28
2022-11-13T17:20:26.634Z,58.50
2022-11-13T17:22:54.564Z,48.28
2022-11-13T17:25:26.453Z,52.22
2022-11-13T17:27:54.574Z,57.38
2022-11-13T17:30:22.939Z,50.28
2022-11-13T17:32:50.819Z,46.55
2022-11-13T17:35:18.663Z,54.45
2022-11-13T17:37:46.527Z,44.85
2022-11-13T17:40:14.389Z,50.40
2022-11-13T17:42:43.707Z,47.58
2022-11-13T17:45:11.871Z,50.78
2022-11-13T17:47:39.750Z,47.60
2022-11-13T17:50:08.661Z,43.63
2022-11-13T17:52:36.541Z,53.00
2022-11-13T17:55:06.052Z,47.67
2022-11-13T17:57:34.306Z,50.25
2022-11-13T18:00:04.304Z,40.95
2022-11-13T18:02:32.235Z,39.63
2022-11-13T18:05:01.353Z,44.70
2022-11-13T18:07:29.681Z,38.80
2022-11-13T18:09:57.723Z,50.40
2022-11-13T18:12:25.628Z,37.38
2022-11-13T18:14:53.539Z,38.25
2022-11-13T18:17:23.555Z,39.22
2022-11-13T18:19:54.796Z,42.05
2022-11-13T18:22:26.583Z,36.78
2022-11-13T18:24:55.652Z,35.40
2022-11-13T18:27:23.542Z,37.25
2022-11-13T18:29:51.612Z,32.47
2022-11-13T18:32:19.611Z,36.92
2022-11-13T18:34:48.859Z,37.35
2022-11-13T18:37:16.772Z,30.45
2022-11-13T18:39:44.635Z,39.20
2022-11-13T18:42:12.603Z,34.17
2022-11-13T18:44:40.511Z,34.83
2022-11-13T18:47:08.376Z,35.10
2022-11-13T18:49:37.566Z,33.80
2022-11-13T18:52:07.134Z,26.33
2022-11-13T18:54:35.046Z,27.58
2022-11-13T18:57:02.951Z,30.02
2022-11-13T18:59:30.846Z,32.05
2022-11-13T19:01:58.767Z,37.17
2022-11-13T19:04:26.678Z,38.38
2022-11-13T19:06:54.578Z,40.10
2022-11-13T19:09:23.937Z,39.22
2022-11-13T19:11:51.864Z,46.55
2022-11-13T19:14:19.859Z,47.25
2022-11-13T19:16:47.957Z,45.22
2022-11-13T19:19:18.730Z,48.75
2022-11-13T19:21:47.167Z,45.90
2022-11-13T19:24:16.768Z,51.63
2022-11-13T19:26:46.644Z,55.25
2022-11-13T19:29:14.736Z,54.25
2022-11-13T19:31:44.571Z,51.25
2022-11-13T19:34:13.208Z,55.00
2022-11-13T19:36:41.406Z,60.45
2022-11-13T19:39:10.613Z,57.33
2022-11-13T19:41:38.500Z,62.55
2022-11-13T19:44:10.090Z,61.85
2022-11-13T19:46:37.998Z,57.10
2022-11-13T19:49:06.936Z,65.78
2022-11-13T19:51:34.850Z,69.07
2022-11-13T19:54:02.771Z,75.28
2022-11-13T19:56:30.765Z,66.60
2022-11-13T19:58:58.917Z,70.68
2022-11-13T20:01:29.395Z,60.80
2022-11-13T20:03:58.449Z,62.47
2022-11-13T20:06:27.697Z,71.85
2022-11-13T20:08:55.724Z,76.25
2022-11-13T20:11:23.639Z,79.53
2022-11-13T20:13:51.976Z,82.68
2022-11-13T20:16:23.280Z,96.82
2022-11-13T20:18:53.469Z,92.88
2022-11-13T20:21:25.410Z,88.22
2022-11-13T20:23:56.167Z,90.82
2022-11-13T20:26:24.567Z,87.88
2022-11-13T20:28:52.523Z,137.23
2022-11-13T20:31:22.565Z,225.32
2022-11-13T20:33:53.016Z,271.92
2022-11-13T20:36:21.076Z,320.00
2022-11-13T20:38:51.150Z,268.98
2022-11-13T20:41:20.695Z,285.15
2022-11-13T20:43:48.780Z,337.50
2022-11-13T20:46:18.218Z,393.67
2022-11-13T20:48:46.562Z,428.20
2022-11-13T20:51:17.543Z,412.80
2022-11-13T20:53:45.841Z,379.00
2022-11-13T20:56:14.309Z,353.60
2022-11-13T20:58:42.620Z,334.90
2022-11-13T21:01:12.675Z,307.70
2022-11-13T21:03:42.444Z,279.52
2022-11-13T21:06:11.628Z,286.17
2022-11-13T21:08:41.136Z,266.40
2022-11-13T21:11:13.229Z,261.30
2022-11-13T21:13:41.137Z,246.52
2022-11-13T21:16:10.535Z,244.95
2022-11-13T21:18:38.656Z,228.00
2022-11-13T21:21:10.217Z,242.65
2022-11-13T21:23:38.527Z,223.27
2022-11-13T21:26:09.618Z,228.80
2022-11-13T21:28:38.132Z,232.77
2022-11-13T21:31:08.539Z,214.75
2022-11-13T21:33:40.279Z,228.88
2022-11-13T21:36:11.700Z,219.63
2022-11-13T21:38:40.024Z,211.13
2022-11-13T21:41:23.018Z,226.18
2022-11-13T21:43:51.827Z,235.25
2022-11-13T21:46:20.806Z,225.15
2022-11-13T21:48:48.932Z,214.73
2022-11-13T21:51:17.203Z,211.15
2022-11-13T21:53:45.110Z,223.35
2022-11-13T21:56:15.823Z,213.77
2022-11-13T21:58:44.552Z,208.63
2022-11-13T22:01:13.536Z,201.25
2022-11-13T22:03:41.991Z,213.60
2022-11-13T22:06:18.046Z,209.60
2022-11-13T22:08:48.235Z,205.20
2022-11-13T22:11:17.495Z,193.27
2022-11-13T22:13:45.410Z,192.93
2022-11-13T22:16:13.948Z,189.15
2022-11-13T22:18:42.012Z,180.15
2022-11-13T22:21:11.932Z,171.18
2022-11-13T22:23:40.042Z,159.88
2022-11-13T22:26:09.316Z,161.60
2022-11-13T22:28:40.016Z,162.30
2022-11-13T22:31:08.583Z,161.27
2022-11-13T22:33:37.428Z,157.68
2022-11-13T22:36:07.383Z,156.40
2022-11-13T22:38:35.979Z,154.80
2022-11-13T22:41:05.055Z,157.02
2022-11-13T22:43:34.589Z,144.80
2022-11-13T22:46:06.115Z,154.88
2022-11-13T22:48:35.732Z,135.90
2022-11-13T22:51:05.381Z,145.57
2022-11-13T22:53:33.276Z,133.23
2022-11-13T22:56:08.327Z,147.65
2022-11-13T22:58:36.322Z,141.23
2022-11-13T23:01:07.159Z,131.73
2022-11-13T23:03:38.337Z,127.68
2022-11-13T23:06:07.204Z,139.57
2022-11-13T23:08:38.723Z,126.72
2022-11-13T23:11:07.712Z,132.20
2022-11-13T23:13:35.700Z,128.82
2022-11-13T23:16:03.948Z,135.23
2022-11-13T23:18:33.987Z,114.25
2022-11-13T23:21:01.841Z,114.18
2022-11-13T23:23:29.767Z,111.15
2022-11-13T23:25:57.732Z,107.30
2022-11-13T23:28:25.760Z,119.03
2022-11-13T23:30:54.186Z,120.32
2022-11-13T23:33:22.114Z,117.18
2022-11-13T23:35:51.746Z,116.97
2022-11-13T23:38:19.723Z,117.93
2022-11-13T23:40:47.615Z,116.28
2022-11-13T23:43:15.486Z,117.05
2022-11-13T23:45:43.787Z,108.25
2022-11-13T23:48:11.819Z,102.90
2022-11-13T23:50:39.801Z,133.30
2022-11-13T23:53:09.168Z,120.57
2022-11-13T23:55:38.929Z,113.95
2022-11-13T23:58:08.444Z,114.30
